createdAt,value
2023-04-18T00:03:16.252Z,1.65
2023-04-18T00:08:10.175Z,2.22
2023-04-18T00:13:04.371Z,1.85
2023-04-18T00:17:57.849Z,2.33
2023-04-18T00:22:54.047Z,1.75
2023-04-18T00:27:47.761Z,2.33
2023-04-18T00:32:42.793Z,1.80
2023-04-18T00:37:37.662Z,1.52
2023-04-18T00:42:31.569Z,1.60
2023-04-18T00:47:24.362Z,1.52
2023-04-18T00:52:18.486Z,1.70
2023-04-18T00:57:12.837Z,1.65
2023-04-18T01:02:06.354Z,1.75
2023-04-18T01:07:00.308Z,1.73
2023-04-18T01:11:55.525Z,1.77
2023-04-18T01:16:48.605Z,1.58
2023-04-18T01:21:43.984Z,1.85
2023-04-18T01:26:39.119Z,1.77
2023-04-18T01:31:35.174Z,1.52
2023-04-18T01:36:27.650Z,1.55
2023-04-18T01:41:21.727Z,1.80
2023-04-18T01:46:15.159Z,1.52
2023-04-18T01:51:08.705Z,1.40
2023-04-18T01:56:04.336Z,1.48
2023-04-18T02:01:00.698Z,1.40
2023-04-18T02:05:54.064Z,1.65
2023-04-18T02:10:47.588Z,1.40
2023-04-18T02:15:41.513Z,1.42
2023-04-18T02:20:35.824Z,1.30
2023-04-18T02:25:32.409Z,1.33
2023-04-18T02:30:26.126Z,1.33
2023-04-18T02:35:22.571Z,1.40
2023-04-18T02:40:15.314Z,1.40
2023-04-18T02:45:11.946Z,1.30
2023-04-18T02:50:08.824Z,1.50
2023-04-18T02:55:03.557Z,1.30
2023-04-18T03:00:03.010Z,1.20
2023-04-18T03:05:15.485Z,1.20
2023-04-18T03:10:10.384Z,1.40
2023-04-18T03:15:06.158Z,1.90
2023-04-18T03:19:59.615Z,1.52
2023-04-18T03:24:52.931Z,1.05
2023-04-18T03:29:47.601Z,1.40
2023-04-18T03:34:41.822Z,1.13
2023-04-18T03:39:36.091Z,1.00
2023-04-18T03:44:29.855Z,1.20
2023-04-18T03:49:23.064Z,1.15
2023-04-18T03:54:17.269Z,1.30
2023-04-18T03:59:10.186Z,0.95
2023-04-18T04:04:04.114Z,0.90
2023-04-18T04:08:59.228Z,1.10
2023-04-18T04:13:55.022Z,1.00
2023-04-18T04:18:53.833Z,1.17
2023-04-18T04:23:51.110Z,1.05
2023-04-18T04:29:04.052Z,1.02
2023-04-18T04:33:58.857Z,0.93
2023-04-18T04:38:57.431Z,0.80
2023-04-18T04:43:59.649Z,0.95
2023-04-18T04:48:58.697Z,0.90
2023-04-18T04:53:52.033Z,0.70
2023-04-18T04:58:45.353Z,0.85
2023-04-18T05:03:42.898Z,1.10
2023-04-18T05:08:36.254Z,1.33
2023-04-18T05:13:29.395Z,1.35
2023-04-18T05:18:23.193Z,1.30
2023-04-18T05:23:17.627Z,1.70
2023-04-18T05:28:15.549Z,1.58
2023-04-18T05:33:07.677Z,1.80
2023-04-18T05:38:00.987Z,1.88
2023-04-18T05:42:54.235Z,3.97
2023-04-18T05:47:47.147Z,3.40
2023-04-18T05:52:40.730Z,2.90
2023-04-18T05:57:34.362Z,2.75
2023-04-18T06:02:30.194Z,2.83
2023-04-18T06:07:25.223Z,3.00
2023-04-18T06:12:17.934Z,3.00
2023-04-18T06:17:17.070Z,2.88
2023-04-18T06:22:11.196Z,2.45
2023-04-18T06:27:05.509Z,2.22
2023-04-18T06:31:59.946Z,2.28
2023-04-18T06:36:53.471Z,2.17
2023-04-18T06:41:48.622Z,2.65
2023-04-18T06:46:53.612Z,2.70
2023-04-18T06:51:46.326Z,2.40
2023-04-18T06:56:39.825Z,2.10
2023-04-18T07:01:52.679Z,2.03
2023-04-18T07:06:45.828Z,1.77
2023-04-18T07:11:41.109Z,1.85
2023-04-18T07:16:34.110Z,1.98
2023-04-18T07:21:28.310Z,2.13
2023-04-18T07:26:20.977Z,1.90
2023-04-18T07:31:15.305Z,1.60
2023-04-18T07:36:09.637Z,1.95
2023-04-18T07:41:03.638Z,1.58
2023-04-18T07:45:57.402Z,2.13
2023-04-18T07:50:50.217Z,1.70
2023-04-18T07:56:03.230Z,1.83
2023-04-18T08:00:57.181Z,1.80
2023-04-18T08:05:50.464Z,2.08
2023-04-18T08:10:43.572Z,1.50
2023-04-18T08:15:35.775Z,2.15
2023-04-18T08:20:29.581Z,1.70
2023-04-18T08:25:23.167Z,1.98
2023-04-18T08:30:16.201Z,2.25
2023-04-18T08:35:10.643Z,2.22
2023-04-18T08:40:05.502Z,2.03
2023-04-18T08:45:00.907Z,2.22
2023-04-18T08:49:54.245Z,1.90
2023-04-18T08:54:49.161Z,2.20
2023-04-18T08:59:47.108Z,2.13
2023-04-18T09:04:46.499Z,2.30
2023-04-18T09:09:46.711Z,1.80
2023-04-18T09:14:43.955Z,1.80
2023-04-18T09:19:37.271Z,2.78
2023-04-18T09:24:31.375Z,2.00
2023-04-18T09:29:43.421Z,2.05
2023-04-18T09:34:38.735Z,2.38
2023-04-18T09:39:31.820Z,2.17
2023-04-18T09:44:25.526Z,2.05
2023-04-18T09:49:18.769Z,1.85
2023-04-18T09:54:16.541Z,1.80
2023-04-18T09:59:11.374Z,1.88
2023-04-18T10:04:06.870Z,1.77
2023-04-18T10:09:04.321Z,1.80
2023-04-18T10:14:01.503Z,2.70
2023-04-18T10:18:55.266Z,1.67
2023-04-18T10:23:49.486Z,1.98
2023-04-18T10:28:53.970Z,1.88
2023-04-18T10:39:24.287Z,1.92
2023-04-18T10:44:18.806Z,1.80
2023-04-18T10:49:27.288Z,2.08
2023-04-18T10:54:23.738Z,1.58
2023-04-18T10:59:17.887Z,1.83
2023-04-18T11:04:15.705Z,2.10
2023-04-18T11:09:13.742Z,1.48
2023-04-18T11:14:06.141Z,1.70
2023-04-18T11:19:00.090Z,1.90
2023-04-18T11:23:54.879Z,1.60
2023-04-18T11:28:57.757Z,2.10
2023-04-18T11:33:52.193Z,1.63
2023-04-18T11:38:44.673Z,1.58
2023-04-18T11:43:37.231Z,1.30
2023-04-18T11:48:37.245Z,1.40
2023-04-18T11:53:52.927Z,1.70
2023-04-18T11:58:46.075Z,1.65
2023-04-18T12:03:40.107Z,1.80
2023-04-18T12:08:33.023Z,1.35
2023-04-18T12:13:31.651Z,1.40
2023-04-18T12:18:24.641Z,1.73
2023-04-18T12:23:36.575Z,1.67
2023-04-18T12:28:30.505Z,1.50
2023-04-18T12:33:23.899Z,1.60
2023-04-18T12:38:22.580Z,1.92
2023-04-18T12:43:15.676Z,2.58
2023-04-18T12:48:09.102Z,2.10
2023-04-18T12:53:03.394Z,2.58
2023-04-18T12:57:56.532Z,2.60
2023-04-18T13:02:49.652Z,2.13
2023-04-18T13:07:43.473Z,2.05
2023-04-18T13:12:37.246Z,1.50
2023-04-18T13:17:29.709Z,1.40
2023-04-18T13:22:22.907Z,1.67
2023-04-18T13:27:17.049Z,1.30
2023-04-18T13:32:10.451Z,4.47
2023-04-18T13:37:05.185Z,3.15
2023-04-18T13:41:58.581Z,3.28
2023-04-18T13:46:53.079Z,3.20
2023-04-18T13:51:46.648Z,3.45
2023-04-18T13:56:40.126Z,3.22
2023-04-18T14:01:32.471Z,3.92
2023-04-18T14:06:26.995Z,2.92
2023-04-18T14:11:20.296Z,3.65
2023-04-18T14:16:14.000Z,2.40
2023-04-18T14:21:07.559Z,2.70
2023-04-18T14:26:02.453Z,2.72
2023-04-18T14:30:57.945Z,2.60
2023-04-18T14:35:52.936Z,3.13
2023-04-18T14:40:45.649Z,2.53
2023-04-18T14:45:39.211Z,2.35
2023-04-18T14:50:32.247Z,2.60
2023-04-18T14:55:26.147Z,2.40
2023-04-18T15:00:21.982Z,2.65
2023-04-18T15:05:15.899Z,2.65
2023-04-18T15:10:13.179Z,2.30
2023-04-18T15:15:09.215Z,2.40
2023-04-18T15:20:02.650Z,2.28
2023-04-18T15:24:56.212Z,2.08
2023-04-18T15:29:49.414Z,2.20
2023-04-18T15:34:43.245Z,1.90
2023-04-18T15:39:36.581Z,2.42
2023-04-18T15:44:31.101Z,1.40
2023-04-18T15:49:25.110Z,1.90
2023-04-18T15:54:19.203Z,1.58
2023-04-18T15:59:13.264Z,1.73
2023-04-18T16:04:06.575Z,1.85
2023-04-18T16:09:00.180Z,1.70
2023-04-18T16:14:01.699Z,1.80
2023-04-18T16:18:55.455Z,1.77
2023-04-18T16:23:49.112Z,1.85
2023-04-18T16:28:42.601Z,1.73
2023-04-18T16:33:35.746Z,1.58
2023-04-18T16:38:28.790Z,1.75
2023-04-18T16:43:26.267Z,1.40
2023-04-18T16:48:19.098Z,1.77
2023-04-18T16:53:12.441Z,1.38
2023-04-18T16:58:05.646Z,1.98
2023-04-18T17:02:59.187Z,1.42
2023-04-18T17:07:52.022Z,1.40
2023-04-18T17:12:49.215Z,1.45
2023-04-18T17:17:42.241Z,1.20
2023-04-18T17:22:45.027Z,1.10
2023-04-18T17:27:41.855Z,1.30
2023-04-18T17:32:34.009Z,1.30
2023-04-18T17:37:31.637Z,1.17
2023-04-18T17:42:24.991Z,1.15
2023-04-18T17:47:19.008Z,1.40
2023-04-18T17:52:13.320Z,1.42
2023-04-18T17:57:07.398Z,1.40
2023-04-18T18:02:00.602Z,1.50
2023-04-18T18:06:58.194Z,1.27
2023-04-18T18:11:50.997Z,1.13
2023-04-18T18:16:44.185Z,1.58
2023-04-18T18:21:37.086Z,1.38
2023-04-18T18:26:30.062Z,1.30
2023-04-18T18:31:25.684Z,1.38
2023-04-18T18:36:19.095Z,1.20
2023-04-18T18:41:13.514Z,1.50
2023-04-18T18:46:06.904Z,2.38
2023-04-18T18:50:59.635Z,2.35
2023-04-18T18:55:53.185Z,2.42
2023-04-18T19:00:47.479Z,2.72
2023-04-18T19:05:40.021Z,2.30
2023-04-18T19:10:32.181Z,3.05
2023-04-18T19:15:26.778Z,2.60
2023-04-18T19:20:21.266Z,2.70
2023-04-18T19:25:14.371Z,2.88
2023-04-18T19:30:09.922Z,2.70
2023-04-18T19:35:03.445Z,2.92
2023-04-18T19:39:57.038Z,2.10
2023-04-18T19:44:51.011Z,2.40
2023-04-18T19:49:44.783Z,2.65
2023-04-18T19:54:39.168Z,2.25
2023-04-18T19:59:31.924Z,3.40
2023-04-18T20:04:26.178Z,2.80
2023-04-18T20:09:19.921Z,2.05
2023-04-18T20:14:13.018Z,3.03
2023-04-18T20:19:06.628Z,2.40
2023-04-18T20:24:00.286Z,2.17
2023-04-18T20:28:54.442Z,2.92
2023-04-18T20:33:47.138Z,2.53
2023-04-18T20:38:41.031Z,2.35
2023-04-18T20:43:37.333Z,2.42
2023-04-18T20:48:31.485Z,2.67
2023-04-18T20:53:29.762Z,2.00
2023-04-18T20:58:22.897Z,2.05
2023-04-18T21:03:17.949Z,1.98
2023-04-18T21:08:14.449Z,3.47
2023-04-18T21:13:12.757Z,2.75
2023-04-18T21:18:05.150Z,2.10
2023-04-18T21:22:59.502Z,2.00
2023-04-18T21:27:53.262Z,2.00
2023-04-18T21:32:47.634Z,2.20
2023-04-18T21:37:40.765Z,2.03
2023-04-18T21:42:35.490Z,1.83
2023-04-18T21:47:28.469Z,1.98
2023-04-18T21:52:22.471Z,2.15
2023-04-18T21:57:14.812Z,2.30
2023-04-18T22:02:08.797Z,1.95
2023-04-18T22:07:03.207Z,1.92
2023-04-18T22:11:57.084Z,2.15
2023-04-18T22:16:51.137Z,1.80
2023-04-18T22:21:43.931Z,1.77
2023-04-18T22:26:37.718Z,2.00
2023-04-18T22:31:30.458Z,1.80
2023-04-18T22:36:27.742Z,2.03
2023-04-18T22:41:24.830Z,2.05
2023-04-18T22:46:18.433Z,1.88
2023-04-18T22:51:12.293Z,1.88
2023-04-18T22:56:06.009Z,2.03
2023-04-18T23:01:00.203Z,1.65
2023-04-18T23:05:53.704Z,1.85
2023-04-18T23:10:46.140Z,2.03
2023-04-18T23:15:40.180Z,1.65
2023-04-18T23:20:33.006Z,1.40
2023-04-18T23:25:26.904Z,1.73
2023-04-18T23:30:19.654Z,1.50
2023-04-18T23:35:13.384Z,1.65
2023-04-18T23:40:09.266Z,1.50
2023-04-18T23:45:04.231Z,1.95
2023-04-18T23:49:57.458Z,1.80
2023-04-18T23:54:51.186Z,1.50
2023-04-18T23:59:43.835Z,1.73
